首页
METAR-TAF:

METAR-TAF

机场 :

巴勒莫, 意大利

纬度: 38-11N, 经度: 013-06E, 海拔: 21米

当前天气观测

该预报发布于16分钟前的07:20 UTC
风速4节,风向多变
温度 22°C
湿度 83%
气压 1017 hPa
能见度10公里或以上
少量云层高于2500英尺

METAR: LICJ 150720Z VRB04KT 9999 FEW025 22/19 Q1017

时间: 09:36 (07:36 UTC)

预报

该预报发布于2小时和36分钟前的05:00 UTC
预报有效从15日的 06点(UTC)到 16日的 06点(UTC)
风速14节,风向
能见度10公里或以上
少量云层高于2500英尺
散云层高于5000英尺
短暂存在
从 15日的 09点(UTC)到 15日的 15点(UTC)
阵雨
短暂存在
从 15日的 15点(UTC)到 15日的 20点(UTC)
雷暴, 雨

TAF: LICJ 150500Z 1506/1606 19014KT 9999 FEW025 SCT050 TEMPO 1509/1515 SHRA TEMPO 1515/1520 TSRA

超过4000个机场的气象观测和天气预报(METAR&TAF报告)。

可查询的气象台以黄色和红色小点在地图上表示。

将鼠标移到小点上方,可查看气象台名称。

然后点击查看天气观测和预报。

如需切换地图:点击带黑十字的绿色按钮放大地图;点击带横线的绿色按钮缩小地图;或者点击绿色箭头查看邻近地区的地图。


METAR-TAF: